Etusivu
METAR-TAF:

METAR-TAF

Lentoasemat :

Skövde, Ruotsi

Leveyspiiri: 58-27N, Pituuspiiri: 013-58E, korkeus merenpinnasta: 98 m

Tämänhetkinen sää

Tämä raportti tehtiin 1 tunti ja 18 minuuttia sitten, kello 17.20 UTC
Tuuli 5 kn pohjoisesta/koillisesta
Lämpötila 1°C
Kosteus 86%
Ilmanpaine 1033 hPa
Näkyvyys 10 km tai enemmän
Pilvistä 2100 ft:n korkeudessa

METAR: ESGR 211720Z 03005KT 9999 OVC021 01/M01 Q1033

Aika: 19:38 (18:38 UTC)


TAF: puuttuu

Säähavainnot ja -ennusteet yli 4000 lentoasemalta (METAR- ja TAF-raportit).

Käytössä olevat sääasemat on merkitty karttaan keltaisilla ja punaisilla pisteillä.

Aseta hiiri pisteen päälle nähdäksesi sääaseman nimen.

Klikkaa sitten nähdäksesi säähavainnot ja -ennusteet.

Kartan vaihtaminen: klikkaa mustalla rastilla varustettuja vihreitä pisteitä, niin voit zoomata sisään; viivalla varustettua vihreää pistettä, niin voit zoomata ulos tai vihreitä nuolia, niin pääset viereisille kartoille.


METAR-TAF: